sensor_id;sensor_type;location;lat;lon;timestamp;P1;durP1;ratioP1;P2;durP2;ratioP2
54899;SDS011;40801;41.924;25.562;2023-06-14T00:00:46;6.43;;;6.03;;
54899;SDS011;40801;41.924;25.562;2023-06-14T00:03:13;7.05;;;6.35;;
54899;SDS011;40801;41.924;25.562;2023-06-14T00:05:42;7.78;;;6.55;;
54899;SDS011;40801;41.924;25.562;2023-06-14T00:08:08;7.35;;;6.85;;
54899;SDS011;40801;41.924;25.562;2023-06-14T00:10:35;7.95;;;7.18;;
54899;SDS011;40801;41.924;25.562;2023-06-14T00:13:01;9.65;;;6.93;;
54899;SDS011;40801;41.924;25.562;2023-06-14T00:15:27;8.60;;;6.88;;
54899;SDS011;40801;41.924;25.562;2023-06-14T00:17:53;7.47;;;6.88;;
54899;SDS011;40801;41.924;25.562;2023-06-14T00:20:20;7.57;;;6.93;;
54899;SDS011;40801;41.924;25.562;2023-06-14T00:22:46;7.00;;;6.50;;
54899;SDS011;40801;41.924;25.562;2023-06-14T00:25:11;7.30;;;6.80;;
54899;SDS011;40801;41.924;25.562;2023-06-14T00:27:37;8.15;;;7.43;;
54899;SDS011;40801;41.924;25.562;2023-06-14T00:30:02;8.73;;;7.80;;
54899;SDS011;40801;41.924;25.562;2023-06-14T00:32:28;8.15;;;7.35;;
54899;SDS011;40801;41.924;25.562;2023-06-14T00:34:53;7.95;;;7.20;;
54899;SDS011;40801;41.924;25.562;2023-06-14T00:37:18;8.32;;;7.70;;
54899;SDS011;40801;41.924;25.562;2023-06-14T00:39:44;7.78;;;7.18;;
54899;SDS011;40801;41.924;25.562;2023-06-14T00:42:09;8.65;;;8.00;;
54899;SDS011;40801;41.924;25.562;2023-06-14T00:44:35;8.30;;;7.60;;
54899;SDS011;40801;41.924;25.562;2023-06-14T00:47:00;8.50;;;7.93;;
54899;SDS011;40801;41.924;25.562;2023-06-14T00:49:26;7.68;;;7.00;;
54899;SDS011;40801;41.924;25.562;2023-06-14T00:51:54;8.23;;;7.53;;
54899;SDS011;40801;41.924;25.562;2023-06-14T00:54:20;8.63;;;8.02;;
54899;SDS011;40801;41.924;25.562;2023-06-14T00:56:45;8.88;;;7.93;;
54899;SDS011;40801;41.924;25.562;2023-06-14T00:59:10;7.93;;;7.35;;
54899;SDS011;40801;41.924;25.562;2023-06-14T01:01:36;8.70;;;7.95;;
54899;SDS011;40801;41.924;25.562;2023-06-14T01:04:02;7.93;;;7.30;;
54899;SDS011;40801;41.924;25.562;2023-06-14T01:06:33;7.57;;;7.07;;
54899;SDS011;40801;41.924;25.562;2023-06-14T01:11:46;9.60;;;7.78;;
54899;SDS011;40801;41.924;25.562;2023-06-14T01:14:16;8.63;;;7.07;;
54899;SDS011;40801;41.924;25.562;2023-06-14T01:16:43;9.63;;;7.75;;
54899;SDS011;40801;41.924;25.562;2023-06-14T01:19:10;8.73;;;8.13;;
54899;SDS011;40801;41.924;25.562;2023-06-14T01:21:38;8.15;;;7.65;;
54899;SDS011;40801;41.924;25.562;2023-06-14T01:24:08;9.20;;;8.20;;
54899;SDS011;40801;41.924;25.562;2023-06-14T01:26:34;7.95;;;7.40;;
54899;SDS011;40801;41.924;25.562;2023-06-14T01:29:02;8.40;;;7.60;;
54899;SDS011;40801;41.924;25.562;2023-06-14T01:31:29;9.52;;;8.50;;
54899;SDS011;40801;41.924;25.562;2023-06-14T01:33:54;7.97;;;7.28;;
54899;SDS011;40801;41.924;25.562;2023-06-14T01:36:20;9.20;;;8.30;;
54899;SDS011;40801;41.924;25.562;2023-06-14T01:38:48;9.23;;;8.32;;
54899;SDS011;40801;41.924;25.562;2023-06-14T01:41:15;8.80;;;7.95;;
54899;SDS011;40801;41.924;25.562;2023-06-14T01:43:42;10.25;;;8.73;;
54899;SDS011;40801;41.924;25.562;2023-06-14T01:46:08;9.70;;;8.05;;
54899;SDS011;40801;41.924;25.562;2023-06-14T01:48:35;9.48;;;8.65;;
54899;SDS011;40801;41.924;25.562;2023-06-14T01:51:01;10.10;;;8.75;;
54899;SDS011;40801;41.924;25.562;2023-06-14T01:53:26;10.93;;;8.48;;
54899;SDS011;40801;41.924;25.562;2023-06-14T01:55:52;10.27;;;9.35;;
54899;SDS011;40801;41.924;25.562;2023-06-14T01:58:19;9.68;;;8.88;;
54899;SDS011;40801;41.924;25.562;2023-06-14T02:00:44;9.55;;;8.20;;
54899;SDS011;40801;41.924;25.562;2023-06-14T02:03:10;9.95;;;8.93;;
54899;SDS011;40801;41.924;25.562;2023-06-14T02:05:36;8.48;;;7.88;;
54899;SDS011;40801;41.924;25.562;2023-06-14T02:08:04;8.43;;;7.82;;
54899;SDS011;40801;41.924;25.562;2023-06-14T02:10:30;8.80;;;8.20;;
54899;SDS011;40801;41.924;25.562;2023-06-14T02:12:55;10.23;;;9.32;;
54899;SDS011;40801;41.924;25.562;2023-06-14T02:15:20;9.23;;;8.43;;
54899;SDS011;40801;41.924;25.562;2023-06-14T02:17:47;9.75;;;8.80;;
54899;SDS011;40801;41.924;25.562;2023-06-14T02:20:12;9.45;;;8.48;;
54899;SDS011;40801;41.924;25.562;2023-06-14T02:22:38;9.07;;;8.20;;
54899;SDS011;40801;41.924;25.562;2023-06-14T02:25:05;9.82;;;8.85;;
54899;SDS011;40801;41.924;25.562;2023-06-14T02:27:31;13.95;;;9.02;;
54899;SDS011;40801;41.924;25.562;2023-06-14T02:29:57;9.77;;;8.90;;
54899;SDS011;40801;41.924;25.562;2023-06-14T02:32:22;10.45;;;9.65;;
54899;SDS011;40801;41.924;25.562;2023-06-14T02:34:48;10.43;;;9.40;;
54899;SDS011;40801;41.924;25.562;2023-06-14T02:37:15;10.13;;;9.15;;
54899;SDS011;40801;41.924;25.562;2023-06-14T02:39:41;9.43;;;8.50;;
54899;SDS011;40801;41.924;25.562;2023-06-14T02:42:06;10.70;;;9.70;;
54899;SDS011;40801;41.924;25.562;2023-06-14T02:44:50;10.15;;;9.15;;
54899;SDS011;40801;41.924;25.562;2023-06-14T02:47:17;10.02;;;9.15;;
54899;SDS011;40801;41.924;25.562;2023-06-14T02:49:43;10.40;;;9.57;;
54899;SDS011;40801;41.924;25.562;2023-06-14T02:52:11;10.82;;;9.77;;
54899;SDS011;40801;41.924;25.562;2023-06-14T02:54:36;10.55;;;9.52;;
54899;SDS011;40801;41.924;25.562;2023-06-14T02:57:02;10.68;;;9.68;;
54899;SDS011;40801;41.924;25.562;2023-06-14T02:59:28;11.07;;;9.70;;
54899;SDS011;40801;41.924;25.562;2023-06-14T03:01:53;10.60;;;9.60;;
54899;SDS011;40801;41.924;25.562;2023-06-14T03:04:18;11.45;;;10.32;;
54899;SDS011;40801;41.924;25.562;2023-06-14T03:06:44;10.45;;;9.57;;
54899;SDS011;40801;41.924;25.562;2023-06-14T03:09:15;10.63;;;9.80;;
54899;SDS011;40801;41.924;25.562;2023-06-14T03:11:40;10.95;;;9.95;;
54899;SDS011;40801;41.924;25.562;2023-06-14T03:14:06;11.35;;;10.55;;
54899;SDS011;40801;41.924;25.562;2023-06-14T03:16:32;12.00;;;10.95;;
54899;SDS011;40801;41.924;25.562;2023-06-14T03:18:57;11.70;;;10.70;;
54899;SDS011;40801;41.924;25.562;2023-06-14T03:21:22;11.00;;;10.05;;
54899;SDS011;40801;41.924;25.562;2023-06-14T03:23:48;11.63;;;10.73;;
54899;SDS011;40801;41.924;25.562;2023-06-14T03:26:14;12.43;;;11.43;;
54899;SDS011;40801;41.924;25.562;2023-06-14T03:28:42;11.30;;;10.40;;
54899;SDS011;40801;41.924;25.562;2023-06-14T03:31:12;12.43;;;11.48;;
54899;SDS011;40801;41.924;25.562;2023-06-14T03:33:38;12.20;;;11.30;;
54899;SDS011;40801;41.924;25.562;2023-06-14T03:36:04;12.27;;;11.38;;
54899;SDS011;40801;41.924;25.562;2023-06-14T03:38:30;12.60;;;11.40;;
54899;SDS011;40801;41.924;25.562;2023-06-14T03:40:56;13.30;;;12.02;;
54899;SDS011;40801;41.924;25.562;2023-06-14T03:43:21;13.77;;;12.40;;
54899;SDS011;40801;41.924;25.562;2023-06-14T03:45:46;12.25;;;11.25;;
54899;SDS011;40801;41.924;25.562;2023-06-14T03:48:12;13.40;;;12.18;;
54899;SDS011;40801;41.924;25.562;2023-06-14T03:50:37;12.88;;;11.68;;
54899;SDS011;40801;41.924;25.562;2023-06-14T03:53:03;11.70;;;10.85;;
54899;SDS011;40801;41.924;25.562;2023-06-14T03:55:29;13.57;;;12.13;;
54899;SDS011;40801;41.924;25.562;2023-06-14T03:57:56;12.65;;;11.52;;
54899;SDS011;40801;41.924;25.562;2023-06-14T04:00:22;13.13;;;12.10;;
54899;SDS011;40801;41.924;25.562;2023-06-14T04:02:48;13.63;;;12.38;;
54899;SDS011;40801;41.924;25.562;2023-06-14T04:05:13;13.77;;;12.55;;
54899;SDS011;40801;41.924;25.562;2023-06-14T04:07:41;20.45;;;17.65;;
54899;SDS011;40801;41.924;25.562;2023-06-14T04:10:09;18.13;;;16.52;;
54899;SDS011;40801;41.924;25.562;2023-06-14T04:12:38;14.77;;;13.60;;
54899;SDS011;40801;41.924;25.562;2023-06-14T04:15:04;15.73;;;14.23;;
54899;SDS011;40801;41.924;25.562;2023-06-14T04:17:31;16.45;;;14.75;;
54899;SDS011;40801;41.924;25.562;2023-06-14T04:19:58;16.23;;;14.80;;
54899;SDS011;40801;41.924;25.562;2023-06-14T04:22:25;16.98;;;15.10;;
54899;SDS011;40801;41.924;25.562;2023-06-14T04:24:56;13.93;;;12.68;;
54899;SDS011;40801;41.924;25.562;2023-06-14T04:27:22;15.10;;;13.75;;
54899;SDS011;40801;41.924;25.562;2023-06-14T04:29:50;14.50;;;13.10;;
54899;SDS011;40801;41.924;25.562;2023-06-14T04:32:28;15.15;;;13.82;;
54899;SDS011;40801;41.924;25.562;2023-06-14T04:34:57;14.63;;;13.23;;
54899;SDS011;40801;41.924;25.562;2023-06-14T04:37:24;14.52;;;13.23;;
54899;SDS011;40801;41.924;25.562;2023-06-14T04:39:53;13.35;;;12.27;;
54899;SDS011;40801;41.924;25.562;2023-06-14T04:42:21;12.63;;;11.38;;
54899;SDS011;40801;41.924;25.562;2023-06-14T04:44:55;13.38;;;12.15;;
54899;SDS011;40801;41.924;25.562;2023-06-14T04:47:21;15.80;;;14.27;;
54899;SDS011;40801;41.924;25.562;2023-06-14T04:49:46;12.57;;;11.43;;
54899;SDS011;40801;41.924;25.562;2023-06-14T04:52:12;14.10;;;10.98;;
54899;SDS011;40801;41.924;25.562;2023-06-14T04:54:38;12.90;;;11.82;;
54899;SDS011;40801;41.924;25.562;2023-06-14T04:57:07;13.35;;;12.23;;
54899;SDS011;40801;41.924;25.562;2023-06-14T04:59:34;14.15;;;12.70;;
54899;SDS011;40801;41.924;25.562;2023-06-14T05:02:00;14.60;;;13.30;;
54899;SDS011;40801;41.924;25.562;2023-06-14T05:04:26;13.98;;;12.82;;
54899;SDS011;40801;41.924;25.562;2023-06-14T05:06:53;14.88;;;13.57;;
54899;SDS011;40801;41.924;25.562;2023-06-14T05:09:19;14.50;;;13.27;;
54899;SDS011;40801;41.924;25.562;2023-06-14T05:11:46;13.05;;;11.90;;
54899;SDS011;40801;41.924;25.562;2023-06-14T05:14:12;13.25;;;12.02;;
54899;SDS011;40801;41.924;25.562;2023-06-14T05:16:38;12.95;;;11.95;;
54899;SDS011;40801;41.924;25.562;2023-06-14T05:19:04;12.73;;;11.63;;
54899;SDS011;40801;41.924;25.562;2023-06-14T05:21:30;12.30;;;11.23;;
54899;SDS011;40801;41.924;25.562;2023-06-14T05:23:58;12.32;;;11.27;;
54899;SDS011;40801;41.924;25.562;2023-06-14T05:26:24;10.52;;;9.45;;
54899;SDS011;40801;41.924;25.562;2023-06-14T05:28:53;11.00;;;9.95;;
54899;SDS011;40801;41.924;25.562;2023-06-14T05:31:22;10.93;;;9.90;;
54899;SDS011;40801;41.924;25.562;2023-06-14T05:33:49;10.80;;;9.90;;
54899;SDS011;40801;41.924;25.562;2023-06-14T05:36:14;11.82;;;10.98;;
54899;SDS011;40801;41.924;25.562;2023-06-14T05:38:40;14.75;;;12.20;;
54899;SDS011;40801;41.924;25.562;2023-06-14T05:41:05;12.43;;;11.35;;
54899;SDS011;40801;41.924;25.562;2023-06-14T05:43:31;11.93;;;10.75;;
54899;SDS011;40801;41.924;25.562;2023-06-14T05:45:56;12.30;;;11.30;;
54899;SDS011;40801;41.924;25.562;2023-06-14T05:48:22;12.70;;;11.40;;
54899;SDS011;40801;41.924;25.562;2023-06-14T05:50:47;11.75;;;10.75;;
54899;SDS011;40801;41.924;25.562;2023-06-14T05:53:13;13.68;;;12.25;;
54899;SDS011;40801;41.924;25.562;2023-06-14T05:55:38;18.15;;;14.50;;
54899;SDS011;40801;41.924;25.562;2023-06-14T05:58:03;13.15;;;11.90;;
54899;SDS011;40801;41.924;25.562;2023-06-14T06:00:29;14.98;;;12.45;;
54899;SDS011;40801;41.924;25.562;2023-06-14T06:02:54;13.38;;;12.20;;
54899;SDS011;40801;41.924;25.562;2023-06-14T06:05:22;19.20;;;12.30;;
54899;SDS011;40801;41.924;25.562;2023-06-14T06:07:48;14.38;;;12.98;;
54899;SDS011;40801;41.924;25.562;2023-06-14T06:10:13;15.20;;;12.07;;
54899;SDS011;40801;41.924;25.562;2023-06-14T06:12:40;13.73;;;12.32;;
54899;SDS011;40801;41.924;25.562;2023-06-14T06:15:06;15.57;;;12.32;;
54899;SDS011;40801;41.924;25.562;2023-06-14T06:17:32;16.55;;;12.20;;
54899;SDS011;40801;41.924;25.562;2023-06-14T06:19:58;20.05;;;12.27;;
54899;SDS011;40801;41.924;25.562;2023-06-14T06:22:24;13.98;;;12.52;;
54899;SDS011;40801;41.924;25.562;2023-06-14T06:24:49;16.23;;;11.40;;
54899;SDS011;40801;41.924;25.562;2023-06-14T06:27:15;12.30;;;10.52;;
54899;SDS011;40801;41.924;25.562;2023-06-14T06:29:41;12.40;;;9.90;;
54899;SDS011;40801;41.924;25.562;2023-06-14T06:32:08;10.02;;;9.10;;
54899;SDS011;40801;41.924;25.562;2023-06-14T06:34:34;10.57;;;9.65;;
54899;SDS011;40801;41.924;25.562;2023-06-14T06:37:01;11.25;;;10.23;;
54899;SDS011;40801;41.924;25.562;2023-06-14T06:39:26;11.30;;;10.20;;
54899;SDS011;40801;41.924;25.562;2023-06-14T06:41:51;10.90;;;9.80;;
54899;SDS011;40801;41.924;25.562;2023-06-14T06:44:17;9.70;;;9.00;;
54899;SDS011;40801;41.924;25.562;2023-06-14T06:46:43;11.90;;;9.80;;
54899;SDS011;40801;41.924;25.562;2023-06-14T06:49:09;9.70;;;9.00;;
54899;SDS011;40801;41.924;25.562;2023-06-14T06:51:37;10.80;;;9.88;;
54899;SDS011;40801;41.924;25.562;2023-06-14T06:54:02;10.18;;;9.38;;
54899;SDS011;40801;41.924;25.562;2023-06-14T06:56:28;8.32;;;7.72;;
54899;SDS011;40801;41.924;25.562;2023-06-14T06:58:54;7.57;;;6.97;;
54899;SDS011;40801;41.924;25.562;2023-06-14T07:01:19;7.50;;;6.90;;
54899;SDS011;40801;41.924;25.562;2023-06-14T07:03:45;7.05;;;6.43;;
54899;SDS011;40801;41.924;25.562;2023-06-14T07:06:11;7.72;;;6.93;;
54899;SDS011;40801;41.924;25.562;2023-06-14T07:08:36;8.60;;;7.45;;
54899;SDS011;40801;41.924;25.562;2023-06-14T07:11:03;7.30;;;6.70;;
54899;SDS011;40801;41.924;25.562;2023-06-14T07:13:29;7.95;;;7.25;;
54899;SDS011;40801;41.924;25.562;2023-06-14T07:15:57;8.57;;;7.75;;
54899;SDS011;40801;41.924;25.562;2023-06-14T07:18:23;8.75;;;7.90;;
54899;SDS011;40801;41.924;25.562;2023-06-14T07:20:48;7.93;;;7.22;;
54899;SDS011;40801;41.924;25.562;2023-06-14T07:23:15;7.63;;;7.07;;
54899;SDS011;40801;41.924;25.562;2023-06-14T07:25:40;9.00;;;8.20;;
54899;SDS011;40801;41.924;25.562;2023-06-14T07:28:06;9.13;;;8.23;;
54899;SDS011;40801;41.924;25.562;2023-06-14T07:30:32;8.40;;;7.75;;
54899;SDS011;40801;41.924;25.562;2023-06-14T07:32:57;8.40;;;7.80;;
54899;SDS011;40801;41.924;25.562;2023-06-14T07:35:23;7.07;;;6.50;;
54899;SDS011;40801;41.924;25.562;2023-06-14T07:37:48;7.43;;;6.82;;
54899;SDS011;40801;41.924;25.562;2023-06-14T07:40:14;7.38;;;6.78;;
54899;SDS011;40801;41.924;25.562;2023-06-14T07:42:40;8.07;;;7.35;;
54899;SDS011;40801;41.924;25.562;2023-06-14T07:45:06;7.30;;;6.70;;
54899;SDS011;40801;41.924;25.562;2023-06-14T07:47:32;12.25;;;11.05;;
54899;SDS011;40801;41.924;25.562;2023-06-14T07:49:58;18.15;;;16.70;;
54899;SDS011;40801;41.924;25.562;2023-06-14T07:52:23;5.93;;;5.45;;
54899;SDS011;40801;41.924;25.562;2023-06-14T07:54:49;7.00;;;6.25;;
54899;SDS011;40801;41.924;25.562;2023-06-14T07:57:14;6.95;;;5.93;;
54899;SDS011;40801;41.924;25.562;2023-06-14T07:59:39;6.90;;;6.30;;
54899;SDS011;40801;41.924;25.562;2023-06-14T08:02:05;13.00;;;11.70;;
54899;SDS011;40801;41.924;25.562;2023-06-14T08:04:31;6.65;;;6.07;;
54899;SDS011;40801;41.924;25.562;2023-06-14T08:06:57;6.65;;;6.15;;
54899;SDS011;40801;41.924;25.562;2023-06-14T08:09:23;6.75;;;6.22;;
54899;SDS011;40801;41.924;25.562;2023-06-14T08:11:50;7.50;;;6.90;;
54899;SDS011;40801;41.924;25.562;2023-06-14T08:14:15;6.63;;;6.03;;
54899;SDS011;40801;41.924;25.562;2023-06-14T08:16:41;6.90;;;6.30;;
54899;SDS011;40801;41.924;25.562;2023-06-14T08:19:06;6.82;;;6.13;;
54899;SDS011;40801;41.924;25.562;2023-06-14T08:21:31;6.22;;;5.72;;
54899;SDS011;40801;41.924;25.562;2023-06-14T08:23:58;6.43;;;5.93;;
54899;SDS011;40801;41.924;25.562;2023-06-14T08:26:24;6.95;;;6.25;;
54899;SDS011;40801;41.924;25.562;2023-06-14T08:28:53;5.40;;;4.90;;
54899;SDS011;40801;41.924;25.562;2023-06-14T08:31:20;5.90;;;5.35;;
54899;SDS011;40801;41.924;25.562;2023-06-14T08:33:45;5.90;;;5.45;;
54899;SDS011;40801;41.924;25.562;2023-06-14T08:36:11;7.40;;;5.82;;
54899;SDS011;40801;41.924;25.562;2023-06-14T08:38:37;5.85;;;5.43;;
54899;SDS011;40801;41.924;25.562;2023-06-14T08:41:03;8.38;;;5.63;;
54899;SDS011;40801;41.924;25.562;2023-06-14T08:43:31;5.68;;;5.15;;
54899;SDS011;40801;41.924;25.562;2023-06-14T08:46:03;6.72;;;5.43;;
54899;SDS011;40801;41.924;25.562;2023-06-14T08:48:29;8.20;;;7.40;;
54899;SDS011;40801;41.924;25.562;2023-06-14T08:50:59;10.57;;;9.35;;
54899;SDS011;40801;41.924;25.562;2023-06-14T08:53:31;9.85;;;9.05;;
54899;SDS011;40801;41.924;25.562;2023-06-14T08:56:01;6.15;;;5.60;;
54899;SDS011;40801;41.924;25.562;2023-06-14T08:58:29;5.78;;;5.30;;
54899;SDS011;40801;41.924;25.562;2023-06-14T09:00:56;6.18;;;5.55;;
54899;SDS011;40801;41.924;25.562;2023-06-14T09:03:23;5.55;;;5.15;;
54899;SDS011;40801;41.924;25.562;2023-06-14T09:05:55;4.97;;;4.45;;
54899;SDS011;40801;41.924;25.562;2023-06-14T09:08:21;5.38;;;4.97;;
54899;SDS011;40801;41.924;25.562;2023-06-14T09:10:48;4.95;;;4.45;;
54899;SDS011;40801;41.924;25.562;2023-06-14T09:13:13;6.35;;;4.35;;
54899;SDS011;40801;41.924;25.562;2023-06-14T09:15:39;5.35;;;4.50;;
54899;SDS011;40801;41.924;25.562;2023-06-14T09:18:04;5.53;;;4.40;;
54899;SDS011;40801;41.924;25.562;2023-06-14T09:20:32;4.88;;;4.13;;
54899;SDS011;40801;41.924;25.562;2023-06-14T09:22:57;8.15;;;7.40;;
54899;SDS011;40801;41.924;25.562;2023-06-14T09:25:23;6.65;;;6.15;;
54899;SDS011;40801;41.924;25.562;2023-06-14T09:27:51;4.65;;;4.25;;
54899;SDS011;40801;41.924;25.562;2023-06-14T09:30:17;4.30;;;4.00;;
54899;SDS011;40801;41.924;25.562;2023-06-14T09:32:45;8.00;;;7.32;;
54899;SDS011;40801;41.924;25.562;2023-06-14T09:35:11;4.40;;;4.00;;
54899;SDS011;40801;41.924;25.562;2023-06-14T09:37:36;4.63;;;4.22;;
54899;SDS011;40801;41.924;25.562;2023-06-14T09:42:30;4.13;;;3.83;;
54899;SDS011;40801;41.924;25.562;2023-06-14T09:44:56;6.15;;;5.03;;
54899;SDS011;40801;41.924;25.562;2023-06-14T09:47:22;3.88;;;3.55;;
54899;SDS011;40801;41.924;25.562;2023-06-14T09:49:49;3.63;;;3.33;;
54899;SDS011;40801;41.924;25.562;2023-06-14T09:52:18;5.00;;;3.70;;
54899;SDS011;40801;41.924;25.562;2023-06-14T09:54:45;3.38;;;3.17;;
54899;SDS011;40801;41.924;25.562;2023-06-14T09:57:13;4.45;;;3.97;;
54899;SDS011;40801;41.924;25.562;2023-06-14T09:59:42;4.28;;;3.88;;
54899;SDS011;40801;41.924;25.562;2023-06-14T10:04:45;3.80;;;3.50;;
54899;SDS011;40801;41.924;25.562;2023-06-14T10:07:17;3.72;;;3.42;;
54899;SDS011;40801;41.924;25.562;2023-06-14T10:09:45;2.95;;;2.78;;
54899;SDS011;40801;41.924;25.562;2023-06-14T10:12:16;5.65;;;3.58;;
54899;SDS011;40801;41.924;25.562;2023-06-14T10:14:46;3.25;;;3.03;;
54899;SDS011;40801;41.924;25.562;2023-06-14T10:18:01;4.35;;;3.78;;
54899;SDS011;40801;41.924;25.562;2023-06-14T10:25:42;4.70;;;4.30;;
54899;SDS011;40801;41.924;25.562;2023-06-14T10:28:14;4.03;;;3.75;;
54899;SDS011;40801;41.924;25.562;2023-06-14T10:31:26;3.88;;;3.58;;
54899;SDS011;40801;41.924;25.562;2023-06-14T10:33:52;3.58;;;3.28;;
54899;SDS011;40801;41.924;25.562;2023-06-14T10:38:56;4.97;;;3.85;;
54899;SDS011;40801;41.924;25.562;2023-06-14T10:41:36;4.63;;;4.30;;
54899;SDS011;40801;41.924;25.562;2023-06-14T10:44:47;5.55;;;5.05;;
54899;SDS011;40801;41.924;25.562;2023-06-14T10:46:55;4.28;;;3.97;;
54899;SDS011;40801;41.924;25.562;2023-06-14T10:49:39;4.80;;;4.40;;
54899;SDS011;40801;41.924;25.562;2023-06-14T10:52:13;4.13;;;3.88;;
54899;SDS011;40801;41.924;25.562;2023-06-14T10:54:59;5.25;;;4.75;;
54899;SDS011;40801;41.924;25.562;2023-06-14T10:57:31;5.15;;;4.68;;
54899;SDS011;40801;41.924;25.562;2023-06-14T11:00:00;4.88;;;4.43;;
54899;SDS011;40801;41.924;25.562;2023-06-14T11:05:05;6.25;;;4.43;;
54899;SDS011;40801;41.924;25.562;2023-06-14T11:10:39;5.15;;;4.75;;
54899;SDS011;40801;41.924;25.562;2023-06-14T11:13:09;3.88;;;3.58;;
54899;SDS011;40801;41.924;25.562;2023-06-14T11:15:35;5.88;;;5.47;;
54899;SDS011;40801;41.924;25.562;2023-06-14T11:18:03;7.05;;;6.38;;
54899;SDS011;40801;41.924;25.562;2023-06-14T11:20:30;11.30;;;10.15;;
54899;SDS011;40801;41.924;25.562;2023-06-14T11:22:57;4.82;;;4.43;;
54899;SDS011;40801;41.924;25.562;2023-06-14T11:25:41;4.60;;;4.25;;
54899;SDS011;40801;41.924;25.562;2023-06-14T11:28:07;4.70;;;4.30;;
54899;SDS011;40801;41.924;25.562;2023-06-14T11:30:33;5.13;;;4.80;;
54899;SDS011;40801;41.924;25.562;2023-06-14T11:32:58;5.85;;;5.45;;
54899;SDS011;40801;41.924;25.562;2023-06-14T11:35:24;4.57;;;4.22;;
54899;SDS011;40801;41.924;25.562;2023-06-14T11:37:54;11.20;;;10.43;;
54899;SDS011;40801;41.924;25.562;2023-06-14T11:40:23;5.15;;;4.60;;
54899;SDS011;40801;41.924;25.562;2023-06-14T11:42:59;4.70;;;4.30;;
54899;SDS011;40801;41.924;25.562;2023-06-14T11:45:26;6.05;;;5.40;;
54899;SDS011;40801;41.924;25.562;2023-06-14T11:47:53;5.55;;;5.15;;
54899;SDS011;40801;41.924;25.562;2023-06-14T11:50:21;5.00;;;4.60;;
54899;SDS011;40801;41.924;25.562;2023-06-14T11:52:51;5.20;;;4.80;;
54899;SDS011;40801;41.924;25.562;2023-06-14T11:55:18;5.45;;;4.90;;
54899;SDS011;40801;41.924;25.562;2023-06-14T11:57:43;5.53;;;4.90;;
54899;SDS011;40801;41.924;25.562;2023-06-14T12:00:12;5.00;;;4.70;;
54899;SDS011;40801;41.924;25.562;2023-06-14T12:02:38;6.13;;;5.53;;
54899;SDS011;40801;41.924;25.562;2023-06-14T12:05:05;6.53;;;6.10;;
54899;SDS011;40801;41.924;25.562;2023-06-14T12:07:38;4.93;;;4.60;;
54899;SDS011;40801;41.924;25.562;2023-06-14T12:10:05;5.15;;;4.78;;
54899;SDS011;40801;41.924;25.562;2023-06-14T12:15:03;5.10;;;4.80;;
54899;SDS011;40801;41.924;25.562;2023-06-14T12:17:33;5.33;;;4.97;;
54899;SDS011;40801;41.924;25.562;2023-06-14T12:20:04;5.30;;;5.00;;
54899;SDS011;40801;41.924;25.562;2023-06-14T12:22:33;5.15;;;4.68;;
54899;SDS011;40801;41.924;25.562;2023-06-14T12:24:59;5.30;;;4.82;;
54899;SDS011;40801;41.924;25.562;2023-06-14T12:27:25;4.75;;;4.45;;
54899;SDS011;40801;41.924;25.562;2023-06-14T12:30:00;5.05;;;4.65;;
54899;SDS011;40801;41.924;25.562;2023-06-14T12:32:26;5.55;;;5.15;;
54899;SDS011;40801;41.924;25.562;2023-06-14T12:34:52;4.65;;;4.32;;
54899;SDS011;40801;41.924;25.562;2023-06-14T12:37:17;4.78;;;4.50;;
54899;SDS011;40801;41.924;25.562;2023-06-14T12:39:43;4.82;;;4.63;;
54899;SDS011;40801;41.924;25.562;2023-06-14T12:42:08;5.00;;;4.72;;
54899;SDS011;40801;41.924;25.562;2023-06-14T12:44:34;4.70;;;4.40;;
54899;SDS011;40801;41.924;25.562;2023-06-14T12:47:00;5.18;;;4.60;;
54899;SDS011;40801;41.924;25.562;2023-06-14T12:49:26;5.65;;;4.22;;
54899;SDS011;40801;41.924;25.562;2023-06-14T12:51:51;5.38;;;4.97;;
54899;SDS011;40801;41.924;25.562;2023-06-14T12:54:17;5.30;;;5.00;;
54899;SDS011;40801;41.924;25.562;2023-06-14T12:56:42;4.80;;;4.50;;
54899;SDS011;40801;41.924;25.562;2023-06-14T12:59:09;4.85;;;4.38;;
54899;SDS011;40801;41.924;25.562;2023-06-14T13:01:37;5.50;;;5.20;;
54899;SDS011;40801;41.924;25.562;2023-06-14T13:04:03;5.45;;;5.15;;
54899;SDS011;40801;41.924;25.562;2023-06-14T13:06:29;9.52;;;8.82;;
54899;SDS011;40801;41.924;25.562;2023-06-14T13:08:56;5.60;;;5.20;;
54899;SDS011;40801;41.924;25.562;2023-06-14T13:11:22;5.20;;;4.80;;
54899;SDS011;40801;41.924;25.562;2023-06-14T13:13:48;5.57;;;4.95;;
54899;SDS011;40801;41.924;25.562;2023-06-14T13:16:13;5.53;;;5.22;;
54899;SDS011;40801;41.924;25.562;2023-06-14T13:18:39;4.97;;;4.68;;
54899;SDS011;40801;41.924;25.562;2023-06-14T13:21:05;5.00;;;4.65;;
54899;SDS011;40801;41.924;25.562;2023-06-14T13:23:30;5.38;;;5.05;;
54899;SDS011;40801;41.924;25.562;2023-06-14T13:25:55;5.20;;;4.90;;
54899;SDS011;40801;41.924;25.562;2023-06-14T13:28:21;4.60;;;4.20;;
54899;SDS011;40801;41.924;25.562;2023-06-14T13:30:47;5.10;;;4.78;;
54899;SDS011;40801;41.924;25.562;2023-06-14T13:33:13;4.88;;;4.57;;
54899;SDS011;40801;41.924;25.562;2023-06-14T13:35:38;4.82;;;4.50;;
54899;SDS011;40801;41.924;25.562;2023-06-14T13:38:03;4.03;;;3.78;;
54899;SDS011;40801;41.924;25.562;2023-06-14T13:40:29;4.68;;;4.38;;
54899;SDS011;40801;41.924;25.562;2023-06-14T13:42:54;4.97;;;4.55;;
54899;SDS011;40801;41.924;25.562;2023-06-14T13:45:20;4.53;;;4.22;;
54899;SDS011;40801;41.924;25.562;2023-06-14T13:47:45;4.25;;;3.92;;
54899;SDS011;40801;41.924;25.562;2023-06-14T13:50:13;5.05;;;4.45;;
54899;SDS011;40801;41.924;25.562;2023-06-14T13:52:39;5.07;;;4.60;;
54899;SDS011;40801;41.924;25.562;2023-06-14T13:55:05;5.10;;;4.70;;
54899;SDS011;40801;41.924;25.562;2023-06-14T13:57:30;4.50;;;4.30;;
54899;SDS011;40801;41.924;25.562;2023-06-14T13:59:56;10.52;;;9.63;;
54899;SDS011;40801;41.924;25.562;2023-06-14T14:02:26;5.07;;;4.65;;
54899;SDS011;40801;41.924;25.562;2023-06-14T14:04:52;6.53;;;6.00;;
54899;SDS011;40801;41.924;25.562;2023-06-14T14:07:18;9.25;;;8.48;;
54899;SDS011;40801;41.924;25.562;2023-06-14T14:09:45;25.60;;;7.78;;
54899;SDS011;40801;41.924;25.562;2023-06-14T14:12:11;5.50;;;5.10;;
54899;SDS011;40801;41.924;25.562;2023-06-14T14:14:36;4.22;;;4.03;;
54899;SDS011;40801;41.924;25.562;2023-06-14T14:17:02;6.82;;;6.43;;
54899;SDS011;40801;41.924;25.562;2023-06-14T14:19:27;7.80;;;5.38;;
54899;SDS011;40801;41.924;25.562;2023-06-14T14:21:53;4.72;;;4.53;;
54899;SDS011;40801;41.924;25.562;2023-06-14T14:24:18;5.63;;;5.13;;
54899;SDS011;40801;41.924;25.562;2023-06-14T14:26:44;5.22;;;4.90;;
54899;SDS011;40801;41.924;25.562;2023-06-14T14:29:12;6.43;;;5.85;;
54899;SDS011;40801;41.924;25.562;2023-06-14T14:31:38;11.45;;;10.48;;
54899;SDS011;40801;41.924;25.562;2023-06-14T14:34:03;4.70;;;4.45;;
54899;SDS011;40801;41.924;25.562;2023-06-14T14:36:29;4.85;;;4.55;;
54899;SDS011;40801;41.924;25.562;2023-06-14T14:38:54;5.47;;;5.07;;
54899;SDS011;40801;41.924;25.562;2023-06-14T14:41:20;7.72;;;7.22;;
54899;SDS011;40801;41.924;25.562;2023-06-14T14:43:45;5.18;;;4.88;;
54899;SDS011;40801;41.924;25.562;2023-06-14T14:46:10;8.48;;;7.88;;
54899;SDS011;40801;41.924;25.562;2023-06-14T14:48:36;5.13;;;4.72;;